createdAt,value
2022-10-15T00:09:07.734Z,8.07
2022-10-15T00:14:12.155Z,8.52
2022-10-15T00:19:10.342Z,8.10
2022-10-15T00:24:10.169Z,7.97
2022-10-15T00:29:17.580Z,8.32
2022-10-15T00:34:15.449Z,6.68
2022-10-15T00:39:15.813Z,7.25
2022-10-15T00:44:47.771Z,7.13
2022-10-15T00:50:01.490Z,5.72
2022-10-15T00:55:03.243Z,5.00
2022-10-15T01:00:07.355Z,5.65
2022-10-15T01:05:06.347Z,4.97
2022-10-15T01:10:05.473Z,6.18
2022-10-15T01:15:10.318Z,6.40
2022-10-15T01:20:45.524Z,6.47
2022-10-15T01:26:23.694Z,7.20
2022-10-15T01:31:35.728Z,7.57
2022-10-15T01:36:38.091Z,7.72
2022-10-15T01:41:41.623Z,8.50
2022-10-15T01:47:02.980Z,8.10
2022-10-15T01:52:06.597Z,7.95
2022-10-15T01:57:05.685Z,7.00
2022-10-15T02:02:04.113Z,7.95
2022-10-15T02:07:08.810Z,5.78
2022-10-15T02:12:18.006Z,5.28
2022-10-15T02:17:21.519Z,5.07
2022-10-15T02:22:23.508Z,5.35
2022-10-15T02:27:21.738Z,4.40
2022-10-15T02:32:22.344Z,5.22
2022-10-15T02:37:22.537Z,6.07
2022-10-15T02:42:20.524Z,5.40
2022-10-15T02:47:19.846Z,5.25
2022-10-15T02:52:17.627Z,6.50
2022-10-15T02:57:16.156Z,5.53
2022-10-15T03:02:22.832Z,5.43
2022-10-15T03:07:26.833Z,4.70
2022-10-15T03:12:33.167Z,5.72
2022-10-15T03:17:58.973Z,5.35
2022-10-15T03:22:56.015Z,6.03
2022-10-15T03:27:56.630Z,4.97
2022-10-15T03:33:03.733Z,5.53
2022-10-15T03:38:00.822Z,4.60
2022-10-15T03:42:58.227Z,6.13
2022-10-15T03:47:57.826Z,5.38
2022-10-15T03:53:03.702Z,5.97
2022-10-15T03:58:04.211Z,4.93
2022-10-15T04:03:08.750Z,5.63
2022-10-15T04:14:39.206Z,5.25
2022-10-15T04:25:29.995Z,5.22
2022-10-15T04:30:30.365Z,5.20
2022-10-15T04:35:36.379Z,5.28
2022-10-15T04:41:29.294Z,4.97
2022-10-15T04:46:40.576Z,4.82
2022-10-15T04:52:54.965Z,5.03
2022-10-15T04:57:33.202Z,5.38
2022-10-15T05:08:50.070Z,5.85
2022-10-15T05:14:31.488Z,6.20
2022-10-15T05:19:54.967Z,5.53
2022-10-15T05:25:18.606Z,5.85
2022-10-15T05:30:19.066Z,5.10
2022-10-15T05:35:27.065Z,6.50
2022-10-15T05:40:41.052Z,5.77
2022-10-15T05:46:19.799Z,5.82
2022-10-15T05:51:23.973Z,7.72
2022-10-15T05:56:29.233Z,6.47
2022-10-15T06:01:39.117Z,6.60
2022-10-15T06:06:42.888Z,6.88
2022-10-15T06:11:40.160Z,8.50
2022-10-15T06:17:19.192Z,8.23
2022-10-15T06:22:23.061Z,8.80
2022-10-15T06:27:20.164Z,10.20
2022-10-15T06:33:04.732Z,11.13
2022-10-15T06:38:05.919Z,11.05
2022-10-15T06:43:07.990Z,14.25
2022-10-15T06:48:08.448Z,14.10
2022-10-15T06:53:08.126Z,12.82
2022-10-15T06:58:16.270Z,14.02
2022-10-15T07:03:15.438Z,11.95
2022-10-15T07:08:22.365Z,10.85
2022-10-15T07:13:24.393Z,13.15
2022-10-15T07:18:22.302Z,13.40
2022-10-15T07:23:27.743Z,12.95
2022-10-15T07:28:54.955Z,15.23
2022-10-15T07:34:24.227Z,14.75
2022-10-15T07:39:23.704Z,10.40
2022-10-15T07:44:23.999Z,11.20
2022-10-15T07:49:22.919Z,10.77
2022-10-15T07:54:24.226Z,8.50
2022-10-15T07:59:24.790Z,9.70
2022-10-15T08:04:22.119Z,9.50
2022-10-15T08:09:31.973Z,9.75
2022-10-15T08:19:43.753Z,9.18
2022-10-15T08:24:44.162Z,7.97
2022-10-15T08:29:42.455Z,11.32
2022-10-15T08:34:47.635Z,10.18
2022-10-15T08:39:50.611Z,9.60
2022-10-15T08:45:28.061Z,9.38
2022-10-15T08:50:54.105Z,10.52
2022-10-15T09:00:57.838Z,9.93
2022-10-15T09:06:07.483Z,11.32
2022-10-15T09:11:39.246Z,8.43
2022-10-15T09:16:43.151Z,11.52
2022-10-15T09:21:43.837Z,11.18
2022-10-15T09:27:23.401Z,8.77
2022-10-15T09:32:34.752Z,6.68
2022-10-15T09:37:38.669Z,8.45
2022-10-15T09:42:43.891Z,5.43
2022-10-15T09:48:24.677Z,5.82
2022-10-15T09:59:33.411Z,6.53
2022-10-15T10:10:33.560Z,10.30
2022-10-15T10:15:38.917Z,6.53
2022-10-15T10:21:17.179Z,5.80
2022-10-15T10:31:36.790Z,5.25
2022-10-15T10:36:40.677Z,6.07
2022-10-15T10:47:41.713Z,5.13
2022-10-15T10:52:59.451Z,4.18
2022-10-15T10:58:00.472Z,4.35
2022-10-15T11:03:03.711Z,4.35
2022-10-15T11:14:08.318Z,4.75
2022-10-15T11:20:36.278Z,5.88
2022-10-15T11:25:48.317Z,4.75
2022-10-15T11:30:59.843Z,5.40
2022-10-15T11:36:36.122Z,3.17
2022-10-15T11:41:45.444Z,3.13
2022-10-15T11:47:37.700Z,3.70
2022-10-15T11:52:48.013Z,3.72
2022-10-15T11:58:45.194Z,6.60
2022-10-15T12:04:00.591Z,3.33
2022-10-15T12:16:17.238Z,3.25
2022-10-15T12:21:38.871Z,3.90
2022-10-15T12:39:52.833Z,4.05
2022-10-15T12:45:08.810Z,4.35
2022-10-15T12:50:57.358Z,5.25
2022-10-15T12:56:15.074Z,3.67
2022-10-15T13:01:50.024Z,3.92
2022-10-15T13:07:03.555Z,4.20
2022-10-15T13:12:33.062Z,4.13
2022-10-15T13:17:31.856Z,3.53
2022-10-15T13:22:31.210Z,3.22
2022-10-15T13:27:50.036Z,3.65
2022-10-15T13:32:51.430Z,4.15
2022-10-15T13:38:18.121Z,3.78
2022-10-15T13:49:48.446Z,4.55
2022-10-15T14:01:18.978Z,4.03
2022-10-15T14:06:24.114Z,4.68
2022-10-15T14:17:25.284Z,3.75
2022-10-15T14:22:36.501Z,4.22
2022-10-15T14:27:35.494Z,3.92
2022-10-15T14:38:17.444Z,5.95
2022-10-15T14:43:19.296Z,7.10
2022-10-15T14:51:17.165Z,6.05
2022-10-15T14:55:41.650Z,6.65
2022-10-15T15:00:49.881Z,6.40
2022-10-15T15:05:54.050Z,6.80
2022-10-15T15:10:56.901Z,7.20
2022-10-15T15:15:59.442Z,6.40
2022-10-15T15:21:39.643Z,7.78
2022-10-15T15:26:37.856Z,7.90
2022-10-15T15:32:08.213Z,15.55
2022-10-15T15:37:27.133Z,11.68
2022-10-15T15:42:25.963Z,7.30
2022-10-15T15:52:51.135Z,8.82
2022-10-15T15:59:19.392Z,9.63
2022-10-15T16:04:21.975Z,9.05
2022-10-15T16:10:08.392Z,9.68
2022-10-15T16:15:17.607Z,9.57
2022-10-15T16:26:51.967Z,9.15
2022-10-15T16:37:39.058Z,9.88
2022-10-15T16:42:48.870Z,12.57
2022-10-15T16:48:03.109Z,12.20
2022-10-15T16:54:30.386Z,11.32
2022-10-15T17:00:02.031Z,10.82
2022-10-15T17:12:03.742Z,12.82
2022-10-15T17:23:13.103Z,8.38
2022-10-15T17:35:01.379Z,9.80
2022-10-15T17:47:45.449Z,14.10
2022-10-15T17:53:04.491Z,11.93
2022-10-15T17:58:31.139Z,11.02
2022-10-15T18:03:31.321Z,12.57
2022-10-15T18:08:55.844Z,12.15
2022-10-15T18:14:10.786Z,14.43
2022-10-15T18:19:48.054Z,11.00
2022-10-15T18:25:29.947Z,10.75
2022-10-15T18:30:52.480Z,10.05
2022-10-15T18:36:53.013Z,11.27
2022-10-15T18:50:02.193Z,10.20
2022-10-15T18:55:56.089Z,10.48
2022-10-15T19:01:15.138Z,10.80
2022-10-15T19:06:14.375Z,11.05
2022-10-15T19:12:08.485Z,11.55
2022-10-15T19:17:25.622Z,11.18
2022-10-15T19:23:11.329Z,8.45
2022-10-15T19:28:32.210Z,9.87
2022-10-15T19:33:46.121Z,8.50
2022-10-15T19:45:10.964Z,9.13
2022-10-15T19:51:17.462Z,9.18
2022-10-15T19:57:12.169Z,7.95
2022-10-15T20:02:15.163Z,9.25
2022-10-15T20:07:21.040Z,9.23
2022-10-15T20:12:38.092Z,10.32
2022-10-15T20:31:10.981Z,9.38
2022-10-15T20:36:42.928Z,8.52
2022-10-15T20:42:01.500Z,7.85
2022-10-15T20:47:33.914Z,10.55
2022-10-15T20:58:29.712Z,7.68
2022-10-15T21:03:30.896Z,6.65
2022-10-15T21:08:28.339Z,5.85
2022-10-15T21:14:06.614Z,5.95
2022-10-15T21:19:04.361Z,5.88
2022-10-15T21:24:06.818Z,5.60
2022-10-15T21:29:25.637Z,5.70
2022-10-15T21:34:30.060Z,5.25
2022-10-15T21:39:33.845Z,5.05
2022-10-15T21:44:40.308Z,5.30
2022-10-15T21:50:08.702Z,4.60
2022-10-15T22:00:23.375Z,4.90
2022-10-15T22:05:23.730Z,6.43
2022-10-15T22:10:36.680Z,5.55
2022-10-15T22:15:38.607Z,4.70
2022-10-15T22:20:38.834Z,6.28
2022-10-15T22:26:02.685Z,6.85
2022-10-15T22:31:07.417Z,6.05
2022-10-15T22:36:15.928Z,6.10
2022-10-15T22:41:20.607Z,5.82
2022-10-15T22:46:19.601Z,5.70
2022-10-15T22:51:18.367Z,6.53
2022-10-15T22:56:20.028Z,7.55
2022-10-15T23:01:29.722Z,7.13
2022-10-15T23:06:27.361Z,6.45
2022-10-15T23:11:29.319Z,7.57
2022-10-15T23:16:30.171Z,7.05
2022-10-15T23:21:33.570Z,9.13
2022-10-15T23:26:33.866Z,12.43
2022-10-15T23:32:14.262Z,11.23
2022-10-15T23:37:14.769Z,12.30
2022-10-15T23:42:11.996Z,11.35
2022-10-15T23:47:11.265Z,9.68
2022-10-15T23:52:18.773Z,10.05
2022-10-15T23:57:17.546Z,10.27
